Terminal Aerodrome Forecast
Issued by NWS Sioux Falls, SD

Home | Current Version | Previous Version | Graphics & Text | Print | Product List | Glossary On
Versions: 1 2 3 4 5 6 7 8 9 10 11 12 13 14 15 16
000
FTUS43 KFSD 171000 AAB
TAFHON
TAF AMD
KHON 171059Z 1711/1806 VRB03KT 4SM BR OVC006
      TEMPO 1711/1713 1/2SM FG OVC002
     FM171500 VRB03KT P6SM SCT020
     FM171800 VRB03KT P6SM SCT035=

USA.gov is the U.S. government's official web portal to all federal, state and local government web resources and services.